Strona główna
METAR-TAF:

METAR-TAF

Lotnisko :

Port lotniczy Albany

Albany, Nowy Jork, Stany Zjednoczone

Szerokość geograficzna: 42-44-53N, Długość geograficzna: 073-48-06W, wysokość: 87 m

Aktualna obserwacja pogody

Raport powstał 11 minut temu, godzina 08:51 UTC
Cisza
Temperatura 16°C
Wilgotność 88%
Ciśnienie 1021 hPa
Widzialność: 16.1 km
Mało chmury na wysokości 20000 ft

METAR: KALB 200851Z 00000KT 10SM FEW200 16/14 A3016 RMK AO2 SLP210 T01610144 53008

czas: 05:02 (09:02 UTC)

Prognoza

Raport powstał 3 godziny i 28 minut temu, godzina 05:34 UTC
Prognoza ważna od 20 godzina 06 UTC do 21 godzina 06 UTC
Wiatr 3 kt z kierunków zmiennych
Widzialność: 10 km
Mało chmury na wysokości 5000 ft
Przerywane chmury na wysokości 15000 ft
Od 20 godzina 1400 UTC
Wiatr 5 kt od wschodnio-południowy wschód
Widzialność: 10 km
Mało chmury na wysokości 5000 ft
Rozproszone chmury na wysokości 15000 ft

TAF: KALB 200534Z 2006/2106 VRB03KT P6SM FEW050 BKN150 FM201400 12005KT P6SM FEW050 SCT150

Obserwacja i prognoza pogody dla ponad 4000 lotnisk (raport METAR i TAF).

Dostępne stacje oznaczono żółtymi i czerwonymi punktami na mapie.

Najedź kursorem aby zobaczyć nazwę stacji.

Kliknij aby zobaczyć obserwacje i prognozy pogody.

Aby zmienić mapę: kliknij na zielony przycisk z czarnym krzyżykiem, aby powiększyć; na zielony przycisk z myślnikiem, aby pomniejszyć; na zielone strzałki, aby przejść do map sąsiednich.


METAR-TAF: